Tesopobampo, Mexico

7:21 PM MST on June 26, 2017 (GMT -0700)
Ciudad Obregon International | | Change Station

Elev 203 ft 27.39 °N, 109.83 °W | Updated 40 minutes ago

Scattered Clouds
Scattered Clouds
93 °F
Feels Like 96 °F
N
7
Wind Variable Wind from SSW

Today
High -- | Low -- °F
--% Chance of Precip.
Yesterday
High -- | Low -- °F
Precip. -- in
Pressure 29.76 in
Visibility 10.0 miles
Clouds Few 15000 ft
Scattered Clouds 20000 ft
Heat Index 96 °F
Dew Point 66 °F
Humidity 41%
Rainfall 0.00 in
Snow Depth Not available.
5:26 AM 7:18 PM
Waxing Crescent, 12% visible
METAR MMCN 270141Z 20006KT 10SM FEW150 SCT200 34/19 A2976 RMK 8/063 HZY
Pressure 29.76 in
Visibility 10.0 miles
Clouds Few 15000 ft
Scattered Clouds 20000 ft
Heat Index 96 °F
Dew Point 66 °F
Humidity 41%
Rainfall 0.00 in
Snow Depth Not available.
5:26 AM 7:18 PM
Waxing Crescent, 12% visible
METAR MMCN 270141Z 20006KT 10SM FEW150 SCT200 34/19 A2976 RMK 8/063 HZY

Get Severe Weather Alerts

Thanks for signing up!

Be on the lookout for a verification email in your inbox.

You'll start receiving the daily forecast at 6 AM.

×

10-Day Weather Forecast

No radar image for this location.
×

Almanac

Astronomy

Jun. 26, 2017 Rise Set
Actual Time
Civil Twilight
Nautical Twilight
Astronomical Twilight
Moon
Length of Visible Light
Length of Day
Tomorrow will be .
, % of the Moon is Illuminated

Today's Extremes

Country Highs Country Lows

Community

WunderPhotos

Category 6

Welcome to Category 6. This is the collective home for Weather Underground's featured writeups by Dr. Jeff Masters (right), Bob Henson (left), Chris Burt, and other regular contributors.

Nearby

Air Quality

  Air Quality AQ Index Pollutant
Not available.

Snow Depth

Station Depth Elevation

Earthquake Activity

City Distance Mag. Time & Date
Minimum magnitude displayed is 2.5.

Coastal Water Temperatures

Place Temperature

Stations

Nearby Weather Stations

Station Location Temp. Windchill Dew Point Humidity Wind Precip. Elev Updated Type